Fagus, Missouri
Current Conditions -  °F | °C
As of 3:05 AM on Monday 24 Nov 2014 (Local Time) from KPOF Reporting Station
Overcast Overcast  
Wind Chill: 54°   Ceiling: 1600
Heat Index: 54°   Visibility: 10mi
Dew Point: 48°   Wind: 17mph
Humidity: 80%   Direction: 280°W
Pressure: 29.37"   Gusts: 35mph
Location:  36.51°N, 90.27°W
Report Text: KPOF 240905Z AUTO 28015G30KT 10SM BKN016 OVC023 12/09 A2937 RMK AO2 PK WND 27033/0855 WSHFT 0845 PRESRR T01220089
Loading
Personal Weather Stations






























Interactive Weather Map New forecast layout! Learn more

10-Day Weather Forecast

Advertisements
Track Severe Weather on mobile